createdAt,value
2019-03-18T00:00:47.275Z,98977.00
2019-03-18T00:03:13.255Z,98944.64
2019-03-18T00:05:39.209Z,98975.89
2019-03-18T00:08:05.172Z,98981.93
2019-03-18T00:10:31.518Z,98984.56
2019-03-18T00:12:57.374Z,98985.88
2019-03-18T00:15:23.442Z,98988.05
2019-03-18T00:17:49.319Z,98987.48
2019-03-18T00:20:15.257Z,98983.16
2019-03-18T00:22:41.260Z,98984.02
2019-03-18T00:25:08.211Z,98987.56
2019-03-18T00:27:34.058Z,98988.42
2019-03-18T00:29:59.956Z,98987.56
2019-03-18T00:32:25.833Z,98984.47
2019-03-18T00:34:51.774Z,98991.50
2019-03-18T00:37:17.665Z,98992.81
2019-03-18T00:39:43.520Z,98990.59
2019-03-18T00:42:09.404Z,98993.52
2019-03-18T00:44:35.299Z,98984.23
2019-03-18T00:47:01.146Z,98987.23
2019-03-18T00:49:27.364Z,98991.50
2019-03-18T00:51:53.342Z,98987.84
2019-03-18T00:54:19.272Z,98989.61
2019-03-18T00:56:45.057Z,98986.98
2019-03-18T00:59:11.030Z,98991.33
2019-03-18T01:01:36.979Z,98999.14
2019-03-18T01:04:02.962Z,98990.84
2019-03-18T01:06:29.051Z,98988.79
2019-03-18T01:08:55.019Z,98995.36
2019-03-18T01:11:20.868Z,98997.05
2019-03-18T01:13:46.757Z,99001.77
2019-03-18T01:16:12.714Z,98998.65
2019-03-18T01:18:38.550Z,99000.38
2019-03-18T01:21:04.428Z,98996.34
2019-03-18T01:23:30.299Z,98993.72
2019-03-18T01:25:56.151Z,99004.23
2019-03-18T01:28:22.129Z,99012.03
2019-03-18T01:30:47.980Z,99007.06
2019-03-18T01:33:13.821Z,99016.11
2019-03-18T01:35:40.089Z,99012.56
2019-03-18T01:38:05.993Z,99006.82
2019-03-18T01:40:31.840Z,99003.20
2019-03-18T01:42:57.742Z,99010.14
2019-03-18T01:45:23.664Z,99006.11
2019-03-18T01:47:49.481Z,99001.72
2019-03-18T01:50:15.443Z,98996.83
2019-03-18T01:52:41.506Z,98996.75
2019-03-18T01:55:07.500Z,98998.14
2019-03-18T01:57:33.372Z,99005.09
2019-03-18T01:59:59.389Z,99001.14
2019-03-18T02:02:25.266Z,98983.36
2019-03-18T02:04:51.143Z,99017.87
2019-03-18T02:07:17.115Z,99016.09
2019-03-18T02:09:43.148Z,99010.27
2019-03-18T02:12:09.011Z,99017.16
2019-03-18T02:14:34.860Z,99010.67
2019-03-18T02:17:00.774Z,99012.36
2019-03-18T02:19:26.642Z,99017.70
2019-03-18T02:21:52.482Z,99024.28
2019-03-18T02:24:18.363Z,99022.88
2019-03-18T02:26:44.215Z,99022.42
2019-03-18T02:29:10.090Z,99029.83
2019-03-18T02:31:36.061Z,99031.14
2019-03-18T02:34:01.925Z,99035.95
2019-03-18T02:36:27.788Z,99033.31
2019-03-18T02:38:53.878Z,99031.55
2019-03-18T02:41:19.729Z,99034.17
2019-03-18T02:43:45.571Z,99034.17
2019-03-18T02:46:11.431Z,99040.27
2019-03-18T02:48:37.312Z,99039.80
2019-03-18T02:51:03.375Z,99041.04
2019-03-18T02:53:29.225Z,99040.59
2019-03-18T02:55:55.072Z,99043.67
2019-03-18T02:58:21.044Z,99043.22
2019-03-18T03:00:47.000Z,99049.70
2019-03-18T03:03:12.848Z,99045.27
2019-03-18T03:05:38.786Z,99043.13
2019-03-18T03:08:04.714Z,99042.11
2019-03-18T03:10:30.560Z,99047.73
2019-03-18T03:12:56.404Z,99048.97
2019-03-18T03:15:22.281Z,99055.55
2019-03-18T03:17:48.131Z,99052.46
2019-03-18T03:20:14.079Z,99059.90
2019-03-18T03:22:40.046Z,99061.22
2019-03-18T03:25:06.771Z,99066.07
2019-03-18T03:27:32.738Z,99065.24
2019-03-18T03:29:58.664Z,99063.92
2019-03-18T03:32:24.545Z,99070.87
2019-03-18T03:34:50.502Z,99073.13
2019-03-18T03:37:16.494Z,99070.95
2019-03-18T03:39:42.548Z,99073.59
2019-03-18T03:42:08.509Z,99070.50
2019-03-18T03:44:34.411Z,99074.82
2019-03-18T03:47:00.244Z,99072.64
2019-03-18T03:49:26.109Z,99081.94
2019-03-18T03:51:52.183Z,99084.11
2019-03-18T03:54:18.024Z,99087.69
2019-03-18T03:56:43.985Z,99092.86
2019-03-18T03:59:09.962Z,99092.38
2019-03-18T04:01:35.956Z,99087.20
2019-03-18T04:04:02.045Z,99097.72
2019-03-18T04:06:27.925Z,99098.20
2019-03-18T04:08:53.863Z,99099.52
2019-03-18T04:11:19.734Z,99101.66
2019-03-18T04:13:45.716Z,99100.34
2019-03-18T04:16:11.592Z,99095.95
2019-03-18T04:18:37.419Z,99095.95
2019-03-18T04:21:03.306Z,99102.52
2019-03-18T04:23:29.271Z,99100.84
2019-03-18T04:25:55.108Z,99104.78
2019-03-18T04:28:20.965Z,99107.87
2019-03-18T04:30:46.834Z,99111.81
2019-03-18T04:33:12.807Z,99109.09
2019-03-18T04:35:38.788Z,99111.73
2019-03-18T04:38:04.657Z,99117.77
2019-03-18T04:40:30.608Z,99120.40
2019-03-18T04:42:56.495Z,99122.09
2019-03-18T04:45:22.332Z,99122.41
2019-03-18T04:47:48.188Z,99125.50
2019-03-18T04:50:14.183Z,99128.13
2019-03-18T04:52:40.224Z,99124.55
2019-03-18T04:55:06.178Z,99129.37
2019-03-18T04:57:32.052Z,99133.69
2019-03-18T04:59:57.907Z,99126.20
2019-03-18T05:02:23.801Z,99128.34
2019-03-18T05:04:49.792Z,99135.33
2019-03-18T05:07:15.650Z,99129.58
2019-03-18T05:09:41.487Z,99126.48
2019-03-18T05:12:07.373Z,99129.98
2019-03-18T05:14:33.229Z,99137.80
2019-03-18T05:16:59.080Z,99140.02
2019-03-18T05:19:24.955Z,99135.33
2019-03-18T05:21:50.822Z,99132.69
2019-03-18T05:24:16.666Z,99137.88
2019-03-18T05:26:42.551Z,99135.98
2019-03-18T05:29:08.494Z,99140.34
2019-03-18T05:31:34.361Z,99148.16
2019-03-18T05:34:00.251Z,99146.35
2019-03-18T05:36:26.108Z,99147.58
2019-03-18T05:38:51.977Z,99149.30
2019-03-18T05:41:17.968Z,99152.84
2019-03-18T05:43:43.814Z,99152.39
2019-03-18T05:46:09.652Z,99153.63
2019-03-18T05:48:35.524Z,99154.56
2019-03-18T05:51:01.376Z,99158.89
2019-03-18T05:53:27.434Z,99157.95
2019-03-18T05:55:53.305Z,99158.81
2019-03-18T05:58:19.160Z,99154.00
2019-03-18T06:00:45.031Z,99165.02
2019-03-18T06:03:11.090Z,99166.33
2019-03-18T06:05:37.044Z,99164.23
2019-03-18T06:08:02.845Z,99166.00
2019-03-18T06:10:28.847Z,99171.19
2019-03-18T06:12:54.730Z,99176.45
2019-03-18T06:15:20.571Z,99172.98
2019-03-18T06:17:52.497Z,99176.94
2019-03-18T06:20:14.109Z,99178.17
2019-03-18T06:22:39.983Z,99180.31
2019-03-18T06:25:06.760Z,99187.30
2019-03-18T06:27:32.639Z,99188.13
2019-03-18T06:29:58.490Z,99197.91
2019-03-18T06:32:24.363Z,99194.86
2019-03-18T06:34:50.303Z,99199.30
2019-03-18T06:37:16.158Z,99200.54
2019-03-18T06:39:42.006Z,99204.33
2019-03-18T06:42:07.990Z,99203.38
2019-03-18T06:44:33.857Z,99216.75
2019-03-18T06:46:59.804Z,99222.72
2019-03-18T06:49:25.674Z,99222.72
2019-03-18T06:51:51.619Z,99222.34
2019-03-18T06:54:17.758Z,99230.23
2019-03-18T06:56:43.611Z,99229.75
2019-03-18T06:59:09.481Z,99235.80
2019-03-18T07:01:35.352Z,99240.98
2019-03-18T07:04:01.297Z,99243.94
2019-03-18T07:06:27.132Z,99244.47
2019-03-18T07:08:53.044Z,99244.39
2019-03-18T07:11:18.851Z,99251.27
2019-03-18T07:13:44.709Z,99252.42
2019-03-18T07:16:10.768Z,99257.16
2019-03-18T07:18:36.622Z,99257.07
2019-03-18T07:21:02.502Z,99261.31
2019-03-18T07:23:28.456Z,99265.59
2019-03-18T07:25:54.312Z,99264.19
2019-03-18T07:28:20.150Z,99270.61
2019-03-18T07:30:46.008Z,99270.98
2019-03-18T07:33:12.790Z,99271.69
2019-03-18T07:35:38.795Z,99280.33
2019-03-18T07:38:04.644Z,99284.61
2019-03-18T07:40:32.405Z,99289.72
2019-03-18T07:42:58.370Z,99287.86
2019-03-18T07:45:24.318Z,99289.47
2019-03-18T07:47:50.160Z,99298.07
2019-03-18T07:50:16.020Z,99303.17
2019-03-18T07:52:41.895Z,99301.70
2019-03-18T07:55:08.083Z,99308.58
2019-03-18T07:57:34.036Z,99316.77
2019-03-18T08:00:00.140Z,99320.18
2019-03-18T08:02:26.158Z,99320.88
2019-03-18T08:04:52.005Z,99319.94
2019-03-18T08:07:17.876Z,99327.30
2019-03-18T08:09:43.770Z,99332.49
2019-03-18T08:12:09.639Z,99335.88
2019-03-18T08:14:35.593Z,99343.65
2019-03-18T08:17:01.464Z,99348.84
2019-03-18T08:19:27.328Z,99357.97
2019-03-18T08:21:53.175Z,99356.58
2019-03-18T08:24:19.048Z,99358.34
2019-03-18T08:26:45.012Z,99365.31
2019-03-18T08:29:10.882Z,99367.03
2019-03-18T08:31:36.736Z,99369.02
2019-03-18T08:34:02.704Z,99368.56
2019-03-18T08:36:28.572Z,99374.62
2019-03-18T08:38:54.449Z,99378.08
2019-03-18T08:41:20.315Z,99391.58
2019-03-18T08:43:46.288Z,99389.32
2019-03-18T08:46:12.229Z,99390.02
2019-03-18T08:48:38.107Z,99394.80
2019-03-18T08:51:04.084Z,99403.12
2019-03-18T08:53:29.933Z,99402.17
2019-03-18T08:55:55.972Z,99406.58
2019-03-18T08:58:21.814Z,99407.45
2019-03-18T09:00:47.782Z,99414.33
2019-03-18T09:03:13.740Z,99417.29
2019-03-18T09:05:39.586Z,99422.94
2019-03-18T09:08:05.438Z,99424.17
2019-03-18T09:10:31.333Z,99431.09
2019-03-18T09:12:57.315Z,99434.88
2019-03-18T09:15:23.252Z,99430.92
2019-03-18T09:17:49.040Z,99436.66
2019-03-18T09:20:15.376Z,99451.08
2019-03-18T09:22:41.267Z,99454.41
2019-03-18T09:25:08.016Z,99455.16
2019-03-18T09:27:33.881Z,99453.30
2019-03-18T09:29:59.770Z,99459.98
2019-03-18T09:32:25.625Z,99463.07
2019-03-18T09:34:54.543Z,99456.56
2019-03-18T09:37:19.237Z,99463.23
2019-03-18T09:39:45.086Z,99457.75
2019-03-18T09:42:10.972Z,99469.36
2019-03-18T09:44:36.968Z,99467.22
2019-03-18T09:47:02.931Z,99471.02
2019-03-18T09:49:28.788Z,99476.20
2019-03-18T09:51:54.705Z,99480.86
2019-03-18T09:54:20.569Z,99481.69
2019-03-18T09:56:46.601Z,99486.67
2019-03-18T09:59:12.456Z,99503.44
2019-03-18T10:01:38.335Z,99500.31
2019-03-18T10:04:04.285Z,99501.17
2019-03-18T10:06:30.166Z,99504.19
2019-03-18T10:08:56.036Z,99512.34
2019-03-18T10:11:22.038Z,99514.90
2019-03-18T10:13:47.891Z,99520.17
2019-03-18T10:16:13.750Z,99523.97
2019-03-18T10:18:39.832Z,99526.28
2019-03-18T10:21:05.689Z,99524.23
2019-03-18T10:23:31.549Z,99535.56
2019-03-18T10:25:57.448Z,99533.80
2019-03-18T10:28:23.285Z,99538.98
2019-03-18T10:30:49.135Z,99544.18
2019-03-18T10:33:15.005Z,99552.17
2019-03-18T10:35:40.882Z,99559.84
2019-03-18T10:38:06.730Z,99564.51
2019-03-18T10:40:32.714Z,99564.80
2019-03-18T10:42:58.579Z,99562.08
2019-03-18T10:45:26.036Z,99558.05
2019-03-18T10:47:54.711Z,99566.25
2019-03-18T10:50:19.694Z,99568.35
2019-03-18T10:52:45.653Z,99566.02
2019-03-18T10:55:11.761Z,99574.00
2019-03-18T10:57:37.745Z,99582.00
2019-03-18T11:00:05.178Z,99579.53
2019-03-18T11:02:31.036Z,99594.12
2019-03-18T11:04:57.078Z,99590.66
2019-03-18T11:07:22.937Z,99595.84
2019-03-18T11:09:48.808Z,99601.05
2019-03-18T11:12:14.722Z,99607.16
2019-03-18T11:14:40.604Z,99613.21
2019-03-18T11:17:06.491Z,99611.81
2019-03-18T11:19:32.350Z,99618.86
2019-03-18T11:21:58.192Z,99618.70
2019-03-18T11:24:24.254Z,99624.52
2019-03-18T11:26:50.126Z,99634.59
2019-03-18T11:29:16.090Z,99632.20
2019-03-18T11:31:41.948Z,99635.92
2019-03-18T11:34:07.899Z,99645.30
2019-03-18T11:36:33.797Z,99642.86
2019-03-18T11:38:59.619Z,99647.52
2019-03-18T11:41:25.490Z,99648.77
2019-03-18T11:43:51.370Z,99661.72
2019-03-18T11:46:17.234Z,99656.69
2019-03-18T11:48:43.215Z,99630.69
2019-03-18T11:51:09.136Z,99663.33
2019-03-18T11:53:35.074Z,99671.55
2019-03-18T11:56:00.916Z,99674.02
2019-03-18T11:58:27.474Z,99673.03
2019-03-18T12:00:53.443Z,99670.30
2019-03-18T12:03:19.328Z,99663.98
2019-03-18T12:05:45.166Z,99675.34
2019-03-18T12:08:11.031Z,99680.13
2019-03-18T12:10:37.028Z,99684.66
2019-03-18T12:13:03.025Z,99685.12
2019-03-18T12:15:28.976Z,99692.59
2019-03-18T12:17:54.957Z,99665.77
2019-03-18T12:20:24.629Z,99687.60
2019-03-18T12:22:48.437Z,99690.53
2019-03-18T12:25:14.322Z,99700.11
2019-03-18T12:27:40.254Z,99703.13
2019-03-18T12:30:18.838Z,99705.59
2019-03-18T12:32:44.808Z,99709.48
2019-03-18T12:35:10.784Z,99707.62
2019-03-18T12:37:36.640Z,99715.92
2019-03-18T12:40:03.006Z,99713.19
2019-03-18T12:42:28.943Z,99725.87
2019-03-18T12:44:54.843Z,99722.27
2019-03-18T12:47:20.822Z,99726.56
2019-03-18T12:49:46.670Z,99733.92
2019-03-18T12:52:12.558Z,99733.92
2019-03-18T12:54:38.425Z,99739.70
2019-03-18T12:57:04.486Z,99739.86
2019-03-18T12:59:30.577Z,99740.77
2019-03-18T13:01:56.422Z,99755.14
2019-03-18T13:04:22.334Z,99759.02
2019-03-18T13:06:48.206Z,99758.73
2019-03-18T13:09:14.061Z,99762.48
2019-03-18T13:11:39.894Z,99764.89
2019-03-18T13:14:05.815Z,99770.33
2019-03-18T13:16:31.673Z,99780.98
2019-03-18T13:18:57.547Z,99777.97
2019-03-18T13:21:23.441Z,99779.66
2019-03-18T13:23:49.328Z,99781.39
2019-03-18T13:26:15.238Z,99784.78
2019-03-18T13:28:41.115Z,99789.62
2019-03-18T13:31:07.088Z,99789.23
2019-03-18T13:33:32.953Z,99794.98
2019-03-18T13:35:58.822Z,99795.06
2019-03-18T13:38:24.792Z,99800.80
2019-03-18T13:40:50.657Z,99800.80
2019-03-18T13:43:16.616Z,99810.05
2019-03-18T13:45:54.380Z,99806.25
2019-03-18T13:48:10.162Z,99805.09
2019-03-18T13:50:36.014Z,99806.48
2019-03-18T13:53:02.060Z,99815.36
2019-03-18T13:55:28.087Z,99821.25
2019-03-18T13:57:53.946Z,99817.45
2019-03-18T14:00:20.420Z,99819.95
2019-03-18T14:02:46.391Z,99823.28
2019-03-18T14:05:12.251Z,99829.66
2019-03-18T14:07:38.092Z,99838.98
2019-03-18T14:10:10.936Z,99847.74
2019-03-18T14:12:37.155Z,99842.99
2019-03-18T14:15:04.975Z,99851.00
2019-03-18T14:17:30.895Z,99850.36
2019-03-18T14:19:56.759Z,99857.11
2019-03-18T14:22:22.617Z,99865.34
2019-03-18T14:24:48.582Z,99866.58
2019-03-18T14:27:14.545Z,99873.86
2019-03-18T14:29:40.405Z,99876.57
2019-03-18T14:32:06.384Z,99874.00
2019-03-18T14:34:32.222Z,99880.91
2019-03-18T14:36:58.088Z,99893.27
2019-03-18T14:39:24.167Z,99896.36
2019-03-18T14:41:50.102Z,99902.31
2019-03-18T14:44:15.943Z,99897.67
2019-03-18T14:46:41.820Z,99900.84
2019-03-18T14:49:07.780Z,99906.19
2019-03-18T14:51:45.130Z,99918.44
2019-03-18T14:54:01.496Z,99919.69
2019-03-18T14:56:27.344Z,99928.09
2019-03-18T14:58:53.200Z,99929.41
2019-03-18T15:01:19.294Z,99935.07
2019-03-18T15:03:45.139Z,99946.08
2019-03-18T15:06:11.098Z,99957.88
2019-03-18T15:08:37.007Z,99961.39
2019-03-18T15:11:03.018Z,99961.39
2019-03-18T15:13:31.278Z,99962.85
2019-03-18T15:15:57.450Z,99969.97
2019-03-18T15:18:23.443Z,99974.94
2019-03-18T15:20:49.369Z,99974.62
2019-03-18T15:23:15.340Z,99979.98
2019-03-18T15:25:41.315Z,99978.66
2019-03-18T15:28:07.188Z,99991.85
2019-03-18T15:30:33.065Z,99991.92
2019-03-18T15:32:59.004Z,100009.00
2019-03-18T15:35:24.856Z,100001.92
2019-03-18T15:37:50.798Z,100019.48
2019-03-18T15:40:18.576Z,100016.92
2019-03-18T15:42:44.472Z,100018.75
2019-03-18T15:45:11.640Z,100022.85
2019-03-18T15:47:37.505Z,100023.44
2019-03-18T15:50:05.296Z,100031.95
2019-03-18T15:52:31.168Z,100039.61
2019-03-18T15:54:57.070Z,100043.77
2019-03-18T15:57:29.592Z,100051.89
2019-03-18T15:59:50.821Z,100058.69
2019-03-18T16:02:16.994Z,100065.86
2019-03-18T16:04:42.865Z,100073.52
2019-03-18T16:07:08.716Z,100073.58
2019-03-18T16:09:34.582Z,100076.73
2019-03-18T16:12:00.448Z,100084.78
2019-03-18T16:14:26.409Z,100087.16
2019-03-18T16:17:01.534Z,100087.74
2019-03-18T16:19:20.062Z,100100.54
2019-03-18T16:21:45.949Z,100098.99
2019-03-18T16:24:11.834Z,100104.81
2019-03-18T16:26:37.796Z,100104.01
2019-03-18T16:29:03.730Z,100112.43
2019-03-18T16:31:29.614Z,100115.61
2019-03-18T16:33:55.482Z,100125.34
2019-03-18T16:36:21.327Z,100124.96
2019-03-18T16:38:47.204Z,100097.93
2019-03-18T16:41:13.138Z,100133.50
2019-03-18T16:43:38.999Z,100137.58
2019-03-18T16:46:04.893Z,100147.25
2019-03-18T16:48:31.638Z,100151.20
2019-03-18T16:50:57.630Z,100149.83
2019-03-18T16:53:23.508Z,100155.16
2019-03-18T16:55:49.563Z,100153.97
2019-03-18T16:58:15.425Z,100148.81
2019-03-18T17:00:41.289Z,100155.91
2019-03-18T17:03:07.308Z,100154.27
2019-03-18T17:05:33.162Z,100164.00
2019-03-18T17:07:59.067Z,100164.61
2019-03-18T17:10:25.019Z,100169.19
2019-03-18T17:12:50.890Z,100172.00
2019-03-18T17:15:17.279Z,100173.55
2019-03-18T17:17:43.218Z,100180.31
2019-03-18T17:20:12.512Z,100182.58
2019-03-18T17:22:48.017Z,100192.34
2019-03-18T17:25:13.381Z,100195.92
2019-03-18T17:27:39.473Z,100200.53
2019-03-18T17:30:07.244Z,100201.09
2019-03-18T17:32:33.190Z,100207.73
2019-03-18T17:34:59.041Z,100207.90
2019-03-18T17:37:25.041Z,100222.02
2019-03-18T17:39:50.883Z,100222.12
2019-03-18T17:42:16.847Z,100222.72
2019-03-18T17:44:42.723Z,100228.54
2019-03-18T17:47:08.587Z,100226.52
2019-03-18T17:49:34.440Z,100234.08
2019-03-18T17:52:00.314Z,100237.10
2019-03-18T17:54:26.174Z,100245.00
2019-03-18T17:56:52.037Z,100250.85
2019-03-18T17:59:18.018Z,100255.35
2019-03-18T18:01:43.859Z,100268.56
2019-03-18T18:04:09.868Z,100274.33
2019-03-18T18:06:35.877Z,100278.27
2019-03-18T18:09:01.737Z,100281.83
2019-03-18T18:11:27.592Z,100288.52
2019-03-18T18:13:53.473Z,100286.04
2019-03-18T18:16:19.530Z,100294.92
2019-03-18T18:18:45.538Z,100304.19
2019-03-18T18:21:11.444Z,100305.11
2019-03-18T18:23:37.304Z,100310.42
2019-03-18T18:26:03.261Z,100312.66
2019-03-18T18:28:29.157Z,100315.34
2019-03-18T18:30:54.978Z,100323.69
2019-03-18T18:33:20.861Z,100326.70
2019-03-18T18:35:46.757Z,100334.20
2019-03-18T18:38:12.635Z,100332.89
2019-03-18T18:40:38.588Z,100337.28
2019-03-18T18:43:04.594Z,100338.20
2019-03-18T18:45:30.460Z,100341.75
2019-03-18T18:47:56.339Z,100341.33
2019-03-18T18:50:22.243Z,100349.75
2019-03-18T18:52:48.242Z,100352.92
2019-03-18T18:55:14.133Z,100357.78
2019-03-18T18:57:40.351Z,100365.30
2019-03-18T19:00:15.885Z,100369.72
2019-03-18T19:02:41.776Z,100379.47
2019-03-18T19:05:08.728Z,100383.08
2019-03-18T19:07:34.668Z,100384.49
2019-03-18T19:10:00.656Z,100387.22
2019-03-18T19:12:26.507Z,100393.84
2019-03-18T19:14:52.473Z,100391.73
2019-03-18T19:17:18.348Z,100386.52
2019-03-18T19:19:44.192Z,100389.59
2019-03-18T19:22:10.055Z,100389.64
2019-03-18T19:24:35.938Z,100392.36
2019-03-18T19:27:01.804Z,100391.09
2019-03-18T19:29:27.652Z,100391.58
2019-03-18T19:31:53.608Z,100390.75
2019-03-18T19:34:19.568Z,100386.33
2019-03-18T19:36:45.548Z,100393.37
2019-03-18T19:39:11.514Z,100400.83
2019-03-18T19:41:40.030Z,100414.41
2019-03-18T19:44:05.095Z,100415.25
2019-03-18T19:46:30.956Z,100426.20
2019-03-18T19:48:56.817Z,100428.82
2019-03-18T19:51:22.651Z,100429.70
2019-03-18T19:53:49.578Z,100439.00
2019-03-18T19:56:15.597Z,100439.05
2019-03-18T19:58:41.568Z,100436.02
2019-03-18T20:01:07.398Z,100440.87
2019-03-18T20:03:33.271Z,100441.33
2019-03-18T20:05:59.234Z,100438.25
2019-03-18T20:08:25.208Z,100451.80
2019-03-18T20:10:51.168Z,100451.84
2019-03-18T20:13:17.122Z,100448.38
2019-03-18T20:15:42.986Z,100462.84
2019-03-18T20:18:08.840Z,100467.27
2019-03-18T20:20:34.680Z,100467.27
2019-03-18T20:23:00.737Z,100466.91
2019-03-18T20:25:26.608Z,100469.55
2019-03-18T20:27:52.461Z,100472.57
2019-03-18T20:30:20.219Z,100477.39
2019-03-18T20:32:46.184Z,100470.86
2019-03-18T20:35:12.775Z,100470.46
2019-03-18T20:37:38.645Z,100477.96
2019-03-18T20:40:06.121Z,100487.16
2019-03-18T20:42:31.962Z,100485.84
2019-03-18T20:44:57.824Z,100482.03
2019-03-18T20:47:23.719Z,100499.16
2019-03-18T20:49:49.618Z,100512.81
2019-03-18T20:52:16.960Z,100510.67
2019-03-18T20:54:43.033Z,100514.66
2019-03-18T20:57:08.879Z,100521.27
2019-03-18T20:59:34.740Z,100521.31
2019-03-18T21:02:02.290Z,100529.59
2019-03-18T21:04:28.271Z,100526.52
2019-03-18T21:06:54.305Z,100529.23
2019-03-18T21:09:20.157Z,100530.98
2019-03-18T21:11:46.012Z,100539.83
2019-03-18T21:14:11.880Z,100544.29
2019-03-18T21:16:37.757Z,100548.67
2019-03-18T21:19:03.756Z,100541.70
2019-03-18T21:21:29.644Z,100554.84
2019-03-18T21:23:55.482Z,100552.25
2019-03-18T21:26:21.347Z,100558.03
2019-03-18T21:28:47.210Z,100562.48
2019-03-18T21:31:13.069Z,100563.84
2019-03-18T21:33:38.918Z,100568.66
2019-03-18T21:36:04.789Z,100570.05
2019-03-18T21:38:30.648Z,100572.71
2019-03-18T21:40:56.524Z,100577.17
2019-03-18T21:43:22.403Z,100578.05
2019-03-18T21:45:48.243Z,100586.00
2019-03-18T21:48:14.101Z,100592.20
2019-03-18T21:50:39.990Z,100585.72
2019-03-18T21:53:05.963Z,100588.86
2019-03-18T21:55:31.809Z,100597.69
2019-03-18T21:57:57.675Z,100607.75
2019-03-18T22:00:23.530Z,100608.27
2019-03-18T22:02:50.649Z,100613.98
2019-03-18T22:05:16.628Z,100616.72
2019-03-18T22:07:42.470Z,100628.20
2019-03-18T22:10:09.527Z,100626.05
2019-03-18T22:12:35.403Z,100626.49
2019-03-18T22:15:01.346Z,100630.47
2019-03-18T22:17:27.280Z,100627.03
2019-03-18T22:19:53.134Z,100635.38
2019-03-18T22:22:18.994Z,100637.17
2019-03-18T22:24:45.773Z,100640.70
2019-03-18T22:27:11.901Z,100646.42
2019-03-18T22:29:37.734Z,100646.94
2019-03-18T22:32:03.703Z,100648.72
2019-03-18T22:34:29.593Z,100660.09
2019-03-18T22:36:55.502Z,100657.16
2019-03-18T22:39:21.365Z,100660.80
2019-03-18T22:41:47.315Z,100668.36
2019-03-18T22:44:13.576Z,100675.52
2019-03-18T22:46:39.423Z,100676.95
2019-03-18T22:49:05.326Z,100678.80
2019-03-18T22:51:31.162Z,100677.55
2019-03-18T22:53:57.043Z,100679.36
2019-03-18T22:56:22.922Z,100676.36
2019-03-18T22:58:48.801Z,100687.31
2019-03-18T23:01:16.052Z,100686.48
2019-03-18T23:03:42.103Z,100690.94
2019-03-18T23:06:07.962Z,100692.31
2019-03-18T23:08:33.830Z,100696.73
2019-03-18T23:10:59.797Z,100700.31
2019-03-18T23:13:25.638Z,100700.81
2019-03-18T23:15:51.498Z,100705.64
2019-03-18T23:18:17.695Z,100699.14
2019-03-18T23:20:43.518Z,100700.52
2019-03-18T23:23:09.379Z,100704.48
2019-03-18T23:25:35.239Z,100715.89
2019-03-18T23:28:01.406Z,100725.97
2019-03-18T23:30:27.283Z,100725.58
2019-03-18T23:32:53.142Z,100727.85
2019-03-18T23:35:19.022Z,100728.81
2019-03-18T23:37:44.871Z,100734.56
2019-03-18T23:40:11.334Z,100736.36
2019-03-18T23:42:37.316Z,100743.84
2019-03-18T23:45:04.065Z,100736.48
2019-03-18T23:47:30.028Z,100732.61
2019-03-18T23:49:55.995Z,100746.68
2019-03-18T23:52:21.834Z,100743.66
2019-03-18T23:54:47.692Z,100747.62
2019-03-18T23:57:13.550Z,100752.42
2019-03-18T23:59:39.404Z,100750.73
